createdAt,value
2023-03-31T00:01:27.807Z,100367.53
2023-03-31T00:04:05.477Z,100355.63
2023-03-31T00:06:38.254Z,100349.06
2023-03-31T00:09:11.831Z,100352.97
2023-03-31T00:11:41.114Z,100350.06
2023-03-31T00:14:10.511Z,100344.63
2023-03-31T00:16:40.606Z,100333.47
2023-03-31T00:19:10.522Z,100324.59
2023-03-31T00:21:42.883Z,100330.63
2023-03-31T00:24:13.899Z,100327.53
2023-03-31T00:26:42.458Z,100325.75
2023-03-31T00:29:14.189Z,100312.59
2023-03-31T00:31:42.520Z,100315.34
2023-03-31T00:34:11.949Z,100303.41
2023-03-31T00:36:45.921Z,100296.94
2023-03-31T00:39:17.979Z,100290.31
2023-03-31T00:41:46.763Z,100288.97
2023-03-31T00:44:19.119Z,100276.56
2023-03-31T00:46:53.765Z,100274.50
2023-03-31T00:49:30.259Z,100271.69
2023-03-31T00:52:05.442Z,100262.00
2023-03-31T00:54:37.345Z,100251.69
2023-03-31T00:57:08.792Z,100245.22
2023-03-31T00:59:42.059Z,100238.53
2023-03-31T01:02:13.587Z,100222.88
2023-03-31T01:04:47.382Z,100219.69
2023-03-31T01:07:24.166Z,100217.47
2023-03-31T01:09:59.308Z,100212.13
2023-03-31T01:12:29.099Z,100222.38
2023-03-31T01:14:58.319Z,100200.97
2023-03-31T01:17:30.045Z,100206.63
2023-03-31T01:20:15.204Z,100193.25
2023-03-31T01:23:34.427Z,100192.16
2023-03-31T01:26:44.208Z,100182.72
2023-03-31T01:29:39.718Z,100181.66
2023-03-31T01:33:05.196Z,100186.72
2023-03-31T01:36:09.401Z,100183.13
2023-03-31T01:39:37.839Z,100176.69
2023-03-31T01:42:16.117Z,100155.63
2023-03-31T01:44:55.409Z,100162.44
2023-03-31T01:47:34.630Z,100142.94
2023-03-31T01:50:08.166Z,100144.81
2023-03-31T01:52:45.075Z,100129.25
2023-03-31T01:55:20.105Z,100130.41
2023-03-31T01:57:55.293Z,100123.22
2023-03-31T02:00:33.486Z,100119.59
2023-03-31T02:03:12.860Z,100108.63
2023-03-31T02:05:48.175Z,100098.38
2023-03-31T02:08:21.644Z,100091.13
2023-03-31T02:10:52.933Z,100096.31
2023-03-31T02:13:25.067Z,100089.94
2023-03-31T02:15:58.218Z,100081.88
2023-03-31T02:18:33.362Z,100070.72
2023-03-31T02:21:03.675Z,100066.47
2023-03-31T02:23:34.386Z,100060.75
2023-03-31T02:26:08.649Z,100060.19
2023-03-31T02:28:39.780Z,100043.66
2023-03-31T02:31:23.603Z,100045.44
2023-03-31T02:33:53.438Z,100038.00
2023-03-31T02:36:22.618Z,100037.16
2023-03-31T02:38:56.207Z,100036.69
2023-03-31T02:41:25.018Z,100026.19
2023-03-31T02:43:55.034Z,100020.31
2023-03-31T02:46:24.037Z,100007.59
2023-03-31T02:48:56.649Z,100010.19
2023-03-31T02:52:33.106Z,99994.03
2023-03-31T02:55:50.009Z,99983.78
2023-03-31T02:58:40.730Z,99973.53
2023-03-31T03:01:27.142Z,99981.97
2023-03-31T03:04:10.652Z,99968.88
2023-03-31T03:06:54.015Z,99953.28
2023-03-31T03:09:43.173Z,99961.34
2023-03-31T03:12:22.185Z,99941.69
2023-03-31T03:14:57.433Z,99940.56
2023-03-31T03:17:32.921Z,99943.63
2023-03-31T03:20:07.911Z,99931.28
2023-03-31T03:22:39.978Z,99919.81
2023-03-31T03:25:12.150Z,99911.25
2023-03-31T03:27:41.847Z,99910.41
2023-03-31T03:30:14.305Z,99903.22
2023-03-31T03:32:47.533Z,99895.84
2023-03-31T03:35:17.350Z,99886.34
2023-03-31T03:37:46.129Z,99884.06
2023-03-31T03:40:15.446Z,99893.56
2023-03-31T03:42:44.205Z,99887.66
2023-03-31T03:45:12.968Z,99874.44
2023-03-31T03:47:41.523Z,99858.56
2023-03-31T03:50:15.984Z,99867.06
2023-03-31T03:52:45.214Z,99859.28
2023-03-31T03:55:14.105Z,99855.78
2023-03-31T03:57:42.482Z,99838.16
2023-03-31T04:00:13.476Z,99833.06
2023-03-31T04:02:45.085Z,99838.31
2023-03-31T04:05:15.938Z,99838.56
2023-03-31T04:07:44.493Z,99830.53
2023-03-31T04:10:13.352Z,99831.22
2023-03-31T04:12:45.320Z,99818.44
2023-03-31T04:15:15.326Z,99816.50
2023-03-31T04:17:51.305Z,99800.22
2023-03-31T04:20:22.533Z,99799.47
2023-03-31T04:22:51.106Z,99789.22
2023-03-31T04:25:22.942Z,99792.06
2023-03-31T04:27:55.079Z,99781.47
2023-03-31T04:30:25.397Z,99777.91
2023-03-31T04:32:57.462Z,99779.88
2023-03-31T04:35:42.837Z,99779.84
2023-03-31T04:38:11.503Z,99764.38
2023-03-31T04:40:41.604Z,99756.72
2023-03-31T04:43:10.312Z,99742.16
2023-03-31T04:45:39.052Z,99752.78
2023-03-31T04:48:08.712Z,99732.28
2023-03-31T04:50:40.827Z,99733.63
2023-03-31T04:53:09.763Z,99715.59
2023-03-31T04:55:41.414Z,99708.03
2023-03-31T04:58:10.944Z,99695.75
2023-03-31T05:00:39.692Z,99682.69
2023-03-31T05:03:10.092Z,99693.03
2023-03-31T05:05:40.957Z,99689.28
2023-03-31T05:08:15.438Z,99678.56
2023-03-31T05:10:44.177Z,99674.41
2023-03-31T05:13:15.940Z,99668.19
2023-03-31T05:15:45.338Z,99672.47
2023-03-31T05:18:13.973Z,99669.78
2023-03-31T05:20:45.185Z,99660.75
2023-03-31T05:23:14.106Z,99659.75
2023-03-31T05:25:42.682Z,99638.97
2023-03-31T05:28:13.611Z,99634.78
2023-03-31T05:30:45.691Z,99640.38
2023-03-31T05:33:14.600Z,99638.31
2023-03-31T05:35:45.730Z,99625.66
2023-03-31T05:38:14.244Z,99617.09
2023-03-31T05:40:42.862Z,99617.94
2023-03-31T05:43:11.345Z,99627.56
2023-03-31T05:45:40.245Z,99623.41
2023-03-31T05:48:09.009Z,99623.69
2023-03-31T05:50:45.580Z,99611.75
2023-03-31T05:53:13.926Z,99599.25
2023-03-31T05:55:42.302Z,99604.69
2023-03-31T05:58:10.940Z,99598.50
2023-03-31T06:00:41.893Z,99597.88
2023-03-31T06:03:10.471Z,99600.97
2023-03-31T06:05:44.699Z,99592.81
2023-03-31T06:08:15.130Z,99575.94
2023-03-31T06:10:45.668Z,99588.28
2023-03-31T06:13:15.761Z,99584.06
2023-03-31T06:15:44.604Z,99587.63
2023-03-31T06:18:13.121Z,99575.34
2023-03-31T06:20:48.265Z,99567.06
2023-03-31T06:23:20.726Z,99576.09
2023-03-31T06:25:51.781Z,99576.38
2023-03-31T06:28:21.389Z,99572.94
2023-03-31T06:30:49.776Z,99569.38
2023-03-31T06:33:20.090Z,99566.88
2023-03-31T06:35:48.756Z,99569.81
2023-03-31T06:38:19.257Z,99555.56
2023-03-31T06:40:48.125Z,99558.97
2023-03-31T06:43:16.591Z,99555.88
2023-03-31T06:45:46.652Z,99553.84
2023-03-31T06:48:15.724Z,99552.19
2023-03-31T06:50:45.248Z,99535.25
2023-03-31T06:53:14.001Z,99532.41
2023-03-31T06:55:44.003Z,99543.91
2023-03-31T06:58:12.770Z,99530.63
2023-03-31T07:00:41.325Z,99538.81
2023-03-31T07:03:10.353Z,99534.69
2023-03-31T07:05:39.037Z,99533.56
2023-03-31T07:08:08.675Z,99539.53
2023-03-31T07:10:40.019Z,99529.22
2023-03-31T07:13:10.345Z,99533.78
2023-03-31T07:15:40.330Z,99529.25
2023-03-31T07:18:09.710Z,99530.47
2023-03-31T07:20:38.130Z,99531.97
2023-03-31T07:23:08.356Z,99512.38
2023-03-31T07:25:37.633Z,99526.31
2023-03-31T07:28:09.622Z,99519.69
2023-03-31T07:30:41.254Z,99514.81
2023-03-31T07:33:13.115Z,99511.63
2023-03-31T07:35:43.322Z,99506.25
2023-03-31T07:38:14.171Z,99512.91
2023-03-31T07:40:45.280Z,99506.66
2023-03-31T07:43:18.791Z,99513.47
2023-03-31T07:45:49.537Z,99521.22
2023-03-31T07:48:18.463Z,99492.47
2023-03-31T07:50:47.613Z,99512.06
2023-03-31T07:53:18.631Z,99511.28
2023-03-31T07:55:49.358Z,99492.69
2023-03-31T07:58:18.032Z,99511.91
2023-03-31T08:00:46.864Z,99494.56
2023-03-31T08:03:17.493Z,99488.38
2023-03-31T08:05:51.149Z,99487.44
2023-03-31T08:08:22.659Z,99490.03
2023-03-31T08:10:55.335Z,99477.66
2023-03-31T08:13:24.841Z,99479.72
2023-03-31T08:15:53.549Z,99480.69
2023-03-31T08:18:26.647Z,99489.28
2023-03-31T08:20:55.160Z,99477.50
2023-03-31T08:23:23.682Z,99478.72
2023-03-31T08:25:52.510Z,99481.06
2023-03-31T08:28:21.193Z,99469.72
2023-03-31T08:30:50.094Z,99462.44
2023-03-31T08:33:19.638Z,99456.16
2023-03-31T08:35:50.712Z,99466.97
2023-03-31T08:38:19.274Z,99464.03
2023-03-31T08:40:48.145Z,99452.00
2023-03-31T08:43:26.813Z,99442.38
2023-03-31T08:45:56.425Z,99453.84
2023-03-31T08:48:29.555Z,99448.25
2023-03-31T08:51:08.044Z,99442.91
2023-03-31T08:53:43.746Z,99452.00
2023-03-31T08:56:19.281Z,99431.56
2023-03-31T08:58:50.720Z,99434.44
2023-03-31T09:01:32.522Z,99427.19
2023-03-31T09:04:26.058Z,99434.28
2023-03-31T09:07:03.886Z,99438.22
2023-03-31T09:09:44.227Z,99423.13
2023-03-31T09:12:21.435Z,99419.44
2023-03-31T09:14:59.216Z,99413.66
2023-03-31T09:17:31.621Z,99411.41
2023-03-31T09:20:08.194Z,99416.25
2023-03-31T09:22:43.207Z,99406.13
2023-03-31T09:25:17.179Z,99413.53
2023-03-31T09:27:48.183Z,99406.16
2023-03-31T09:30:22.023Z,99406.28
2023-03-31T09:32:54.465Z,99408.94
2023-03-31T09:35:26.107Z,99402.94
2023-03-31T09:38:08.944Z,99382.38
2023-03-31T09:40:37.473Z,99396.09
2023-03-31T09:43:10.909Z,99372.44
2023-03-31T09:45:39.297Z,99390.69
2023-03-31T09:48:15.418Z,99384.69
2023-03-31T09:50:48.500Z,99367.16
2023-03-31T09:53:26.841Z,99373.22
2023-03-31T09:56:02.125Z,99362.97
2023-03-31T09:58:30.878Z,99351.09
2023-03-31T10:01:04.506Z,99366.84
2023-03-31T10:03:37.195Z,99359.13
2023-03-31T10:06:12.668Z,99345.72
2023-03-31T10:08:44.461Z,99354.34
2023-03-31T10:11:14.531Z,99333.06
2023-03-31T10:13:48.887Z,99349.16
2023-03-31T10:16:25.929Z,99348.59
2023-03-31T10:18:55.265Z,99343.03
2023-03-31T10:21:27.224Z,99341.09
2023-03-31T10:24:02.617Z,99340.53
2023-03-31T10:26:31.524Z,99333.56
2023-03-31T10:29:01.196Z,99321.41
2023-03-31T10:31:39.591Z,99328.41
2023-03-31T10:34:12.788Z,99320.53
2023-03-31T10:36:48.673Z,99322.16
2023-03-31T10:39:21.117Z,99323.03
2023-03-31T10:41:53.608Z,99327.16
2023-03-31T10:44:35.457Z,99316.38
2023-03-31T10:47:19.221Z,99312.91
2023-03-31T10:49:57.388Z,99317.81
2023-03-31T10:52:28.742Z,99304.84
2023-03-31T10:55:01.302Z,99307.47
2023-03-31T10:57:45.466Z,99306.88
2023-03-31T11:00:32.263Z,99310.28
2023-03-31T11:03:43.485Z,99308.44
2023-03-31T11:06:57.879Z,99311.06
2023-03-31T11:09:57.230Z,99314.06
2023-03-31T11:12:37.309Z,99288.72
2023-03-31T11:15:21.022Z,99309.25
2023-03-31T11:18:16.091Z,99309.69
2023-03-31T11:21:07.234Z,99294.88
2023-03-31T11:23:44.423Z,99300.41
2023-03-31T11:26:19.033Z,99312.72
2023-03-31T11:29:21.843Z,99306.56
2023-03-31T11:32:00.584Z,99301.66
2023-03-31T11:34:53.296Z,99297.56
2023-03-31T11:37:54.030Z,99313.44
2023-03-31T11:40:48.900Z,99314.28
2023-03-31T11:43:30.342Z,99313.63
2023-03-31T11:46:17.882Z,99311.94
2023-03-31T11:48:58.006Z,99295.88
2023-03-31T11:51:34.235Z,99293.94
2023-03-31T11:54:12.739Z,99290.09
2023-03-31T11:56:48.351Z,99291.97
2023-03-31T12:02:34.843Z,99289.94
2023-03-31T12:05:20.074Z,99288.00
2023-03-31T12:07:59.215Z,99279.09
2023-03-31T12:10:36.947Z,99287.47
2023-03-31T12:13:29.549Z,99290.72
2023-03-31T12:16:06.913Z,99273.44
2023-03-31T12:18:43.935Z,99287.59
2023-03-31T12:21:15.567Z,99274.84
2023-03-31T12:23:46.977Z,99268.63
2023-03-31T12:26:38.778Z,99262.69
2023-03-31T12:29:24.393Z,99268.06
2023-03-31T12:31:57.236Z,99265.38
2023-03-31T12:34:30.237Z,99274.69
2023-03-31T12:37:17.511Z,99270.09
2023-03-31T12:40:00.793Z,99269.22
2023-03-31T12:43:00.681Z,99255.59
2023-03-31T12:45:31.519Z,99268.22
2023-03-31T12:48:36.876Z,99256.28
2023-03-31T12:51:25.988Z,99244.22
2023-03-31T12:54:16.722Z,99234.97
2023-03-31T12:57:06.890Z,99250.09
2023-03-31T12:59:39.689Z,99238.13
2023-03-31T13:02:26.923Z,99233.56
2023-03-31T13:04:56.351Z,99227.78
2023-03-31T13:07:43.433Z,99228.88
2023-03-31T13:10:33.324Z,99234.56
2023-03-31T13:13:13.135Z,99222.09
2023-03-31T13:15:42.478Z,99240.63
2023-03-31T13:18:23.341Z,99222.19
2023-03-31T13:21:01.053Z,99225.53
2023-03-31T13:23:37.981Z,99206.09
2023-03-31T13:26:07.414Z,99207.91
2023-03-31T13:28:43.135Z,99204.56
2023-03-31T13:31:13.614Z,99200.03
2023-03-31T13:33:57.627Z,99205.94
2023-03-31T13:37:05.322Z,99202.91
2023-03-31T13:40:21.844Z,99199.72
2023-03-31T13:43:50.776Z,99199.00
2023-03-31T13:47:15.548Z,99192.88
2023-03-31T13:50:05.442Z,99189.69
2023-03-31T13:52:46.421Z,99190.28
2023-03-31T13:55:50.328Z,99185.53
2023-03-31T13:58:50.034Z,99195.88
2023-03-31T14:01:47.229Z,99184.72
2023-03-31T14:04:45.558Z,99186.13
2023-03-31T14:07:19.383Z,99179.88
2023-03-31T14:09:54.286Z,99179.16
2023-03-31T14:12:33.858Z,99172.16
2023-03-31T14:15:03.787Z,99174.34
2023-03-31T14:17:35.385Z,99179.22
2023-03-31T14:20:30.751Z,99177.59
2023-03-31T14:23:13.776Z,99191.44
2023-03-31T14:25:53.292Z,99181.50
2023-03-31T14:32:55.412Z,99176.50
2023-03-31T14:35:34.003Z,99179.72
2023-03-31T14:38:05.367Z,99177.06
2023-03-31T14:40:33.944Z,99177.94
2023-03-31T14:43:02.547Z,99174.38
2023-03-31T14:45:35.030Z,99171.44
2023-03-31T14:48:17.423Z,99173.69
2023-03-31T14:50:58.689Z,99171.66
2023-03-31T14:53:30.086Z,99183.72
2023-03-31T14:56:07.019Z,99181.06
2023-03-31T14:58:40.907Z,99175.44
2023-03-31T15:01:14.196Z,99172.66
2023-03-31T15:03:45.881Z,99171.59
2023-03-31T15:06:15.420Z,99180.78
2023-03-31T15:08:46.244Z,99188.00
2023-03-31T15:11:20.880Z,99165.34
2023-03-31T15:14:03.456Z,99167.53
2023-03-31T15:16:42.847Z,99166.31
2023-03-31T15:19:23.841Z,99173.25
2023-03-31T15:21:58.118Z,99168.06
2023-03-31T15:24:26.830Z,99168.94
2023-03-31T15:27:02.735Z,99164.97
2023-03-31T15:29:39.138Z,99155.94
2023-03-31T15:32:15.590Z,99159.91
2023-03-31T15:34:48.170Z,99166.78
2023-03-31T15:37:16.942Z,99162.75
2023-03-31T15:39:50.126Z,99159.63
2023-03-31T15:42:20.724Z,99156.72
2023-03-31T15:45:02.847Z,99156.91
2023-03-31T15:47:37.884Z,99161.50
2023-03-31T15:50:18.518Z,99162.19
2023-03-31T15:52:53.171Z,99163.09
2023-03-31T15:55:31.294Z,99148.56
2023-03-31T15:58:01.988Z,99148.72
2023-03-31T16:00:50.980Z,99149.78
2023-03-31T16:03:25.166Z,99145.69
2023-03-31T16:05:59.846Z,99155.69
2023-03-31T16:08:35.052Z,99150.75
2023-03-31T16:11:08.859Z,99148.50
2023-03-31T16:13:45.126Z,99146.66
2023-03-31T16:16:21.854Z,99147.94
2023-03-31T16:18:53.775Z,99150.06
2023-03-31T16:21:27.607Z,99144.69
2023-03-31T16:24:00.983Z,99140.13
2023-03-31T16:26:32.726Z,99154.34
2023-03-31T16:29:02.113Z,99139.06
2023-03-31T16:31:35.919Z,99149.94
2023-03-31T16:34:09.977Z,99144.44
2023-03-31T16:36:41.032Z,99138.50
2023-03-31T16:39:09.454Z,99137.38
2023-03-31T16:41:39.284Z,99126.56
2023-03-31T16:44:07.678Z,99131.44
2023-03-31T16:46:36.019Z,99121.78
2023-03-31T16:49:05.125Z,99117.28
2023-03-31T16:51:34.424Z,99126.50
2023-03-31T16:54:05.004Z,99123.91
2023-03-31T16:56:33.324Z,99130.59
2023-03-31T16:59:02.322Z,99131.53
2023-03-31T17:01:31.066Z,99116.47
2023-03-31T17:03:59.427Z,99121.25
2023-03-31T17:06:28.266Z,99111.59
2023-03-31T17:08:56.864Z,99117.88
2023-03-31T17:11:34.491Z,99117.75
2023-03-31T17:14:06.680Z,99126.22
2023-03-31T17:16:47.338Z,99114.50
2023-03-31T17:19:19.716Z,99118.44
2023-03-31T17:21:48.464Z,99117.28
2023-03-31T17:24:18.382Z,99119.56
2023-03-31T17:29:55.824Z,99124.38
2023-03-31T17:32:26.705Z,99112.47
2023-03-31T17:34:57.504Z,99117.13
2023-03-31T17:37:26.240Z,99105.16
2023-03-31T17:39:55.486Z,99109.53
2023-03-31T17:42:25.435Z,99100.06
2023-03-31T17:44:58.719Z,99107.84
2023-03-31T17:47:27.910Z,99099.09
2023-03-31T17:49:59.818Z,99114.50
2023-03-31T17:52:29.679Z,99107.25
2023-03-31T17:54:59.491Z,99112.13
2023-03-31T17:57:29.622Z,99123.09
2023-03-31T17:59:58.530Z,99106.66
2023-03-31T18:02:27.582Z,99122.81
2023-03-31T18:04:56.043Z,99125.16
2023-03-31T18:07:24.959Z,99120.81
2023-03-31T18:09:54.373Z,99122.41
2023-03-31T18:12:24.142Z,99115.97
2023-03-31T18:14:54.472Z,99110.94
2023-03-31T18:17:24.297Z,99111.03
2023-03-31T18:19:53.505Z,99114.16
2023-03-31T18:22:23.845Z,99115.63
2023-03-31T18:24:52.569Z,99103.75
2023-03-31T18:27:24.974Z,99113.66
2023-03-31T18:30:02.655Z,99112.31
2023-03-31T18:32:34.743Z,99119.47
2023-03-31T18:35:05.339Z,99108.00
2023-03-31T18:37:41.201Z,99114.34
2023-03-31T18:40:22.211Z,99118.66
2023-03-31T18:42:51.482Z,99122.38
2023-03-31T18:45:29.532Z,99098.47
2023-03-31T18:48:13.434Z,99125.06
2023-03-31T18:50:49.471Z,99113.28
2023-03-31T18:53:23.236Z,99119.66
2023-03-31T18:55:57.449Z,99101.63
2023-03-31T18:58:35.350Z,99112.75
2023-03-31T19:01:06.701Z,99113.28
2023-03-31T19:03:36.583Z,99113.91
2023-03-31T19:06:15.819Z,99107.84
2023-03-31T19:08:51.579Z,99101.75
2023-03-31T19:11:22.839Z,99104.03
2023-03-31T19:13:54.616Z,99106.16
2023-03-31T19:16:31.140Z,99104.72
2023-03-31T19:19:01.172Z,99098.66
2023-03-31T19:21:32.825Z,99093.84
2023-03-31T19:24:15.516Z,99106.00
2023-03-31T19:26:52.720Z,99098.53
2023-03-31T19:29:21.713Z,99095.56
2023-03-31T19:32:00.041Z,99096.38
2023-03-31T19:34:32.182Z,99097.56
2023-03-31T19:37:02.180Z,99090.72
2023-03-31T19:39:32.041Z,99105.84
2023-03-31T19:42:05.337Z,99103.16
2023-03-31T19:44:37.612Z,99098.09
2023-03-31T19:47:08.722Z,99102.03
2023-03-31T19:49:38.224Z,99088.75
2023-03-31T19:52:08.793Z,99098.38
2023-03-31T19:54:37.910Z,99094.69
2023-03-31T19:57:07.295Z,99096.53
2023-03-31T19:59:37.394Z,99089.91
2023-03-31T20:02:09.001Z,99081.41
2023-03-31T20:04:38.371Z,99083.47
2023-03-31T20:07:08.057Z,99080.88
2023-03-31T20:09:37.454Z,99081.00
2023-03-31T20:12:07.040Z,99082.56
2023-03-31T20:14:36.872Z,99078.88
2023-03-31T20:17:07.840Z,99085.94
2023-03-31T20:19:47.251Z,99076.22
2023-03-31T20:22:17.760Z,99075.38
2023-03-31T20:24:46.965Z,99069.97
2023-03-31T20:27:16.106Z,99081.28
2023-03-31T20:29:45.486Z,99080.13
2023-03-31T20:32:17.433Z,99073.66
2023-03-31T20:34:46.311Z,99062.50
2023-03-31T20:37:15.140Z,99074.38
2023-03-31T20:39:44.833Z,99074.16
2023-03-31T20:42:14.949Z,99069.00
2023-03-31T20:44:44.286Z,99064.50
2023-03-31T20:47:14.373Z,99072.38
2023-03-31T20:49:44.698Z,99071.09
2023-03-31T20:52:13.459Z,99060.22
2023-03-31T20:54:42.049Z,99085.94
2023-03-31T20:57:12.130Z,99071.44
2023-03-31T20:59:40.751Z,99077.50
2023-03-31T21:02:11.836Z,99057.41
2023-03-31T21:04:40.609Z,99067.00
2023-03-31T21:07:10.596Z,99066.16
2023-03-31T21:09:39.391Z,99060.06
2023-03-31T21:12:08.564Z,99062.75
2023-03-31T21:14:38.129Z,99062.59
2023-03-31T21:17:07.501Z,99073.34
2023-03-31T21:19:38.148Z,99058.53
2023-03-31T21:22:07.340Z,99068.56
2023-03-31T21:24:37.887Z,99063.06
2023-03-31T21:27:06.581Z,99069.28
2023-03-31T21:29:35.259Z,99068.13
2023-03-31T21:32:03.756Z,99067.69
2023-03-31T21:34:32.289Z,99065.44
2023-03-31T21:37:01.802Z,99074.22
2023-03-31T21:39:31.047Z,99079.59
2023-03-31T21:42:01.010Z,99083.66
2023-03-31T21:44:29.806Z,99079.59
2023-03-31T21:46:58.600Z,99084.22
2023-03-31T21:49:28.819Z,99082.53
2023-03-31T21:51:57.500Z,99082.13
2023-03-31T21:54:27.262Z,99081.09
2023-03-31T21:56:56.563Z,99072.34
2023-03-31T21:59:27.959Z,99070.72
2023-03-31T22:01:57.621Z,99076.19
2023-03-31T22:04:26.618Z,99075.34
2023-03-31T22:06:55.437Z,99077.16
2023-03-31T22:09:24.618Z,99074.88
2023-03-31T22:11:53.337Z,99084.97
2023-03-31T22:14:21.835Z,99091.47
2023-03-31T22:16:51.960Z,99090.47
2023-03-31T22:19:20.894Z,99089.75
2023-03-31T22:21:50.157Z,99078.31
2023-03-31T22:24:19.142Z,99091.31
2023-03-31T22:26:47.717Z,99094.97
2023-03-31T22:29:17.426Z,99100.09
2023-03-31T22:31:46.102Z,99100.63
2023-03-31T22:34:19.086Z,99090.84
2023-03-31T22:36:49.218Z,99086.16
2023-03-31T22:39:18.505Z,99084.22
2023-03-31T22:41:49.252Z,99095.81
2023-03-31T22:44:18.338Z,99093.44
2023-03-31T22:46:47.080Z,99088.22
2023-03-31T22:49:17.350Z,99083.25
2023-03-31T22:51:45.926Z,99085.28
2023-03-31T22:54:15.567Z,99096.00
2023-03-31T22:56:45.590Z,99088.97
2023-03-31T22:59:14.044Z,99095.25
2023-03-31T23:01:42.729Z,99103.19
2023-03-31T23:04:11.155Z,99099.19
2023-03-31T23:06:42.094Z,99100.91
2023-03-31T23:09:10.873Z,99092.03
2023-03-31T23:11:39.565Z,99093.91
2023-03-31T23:14:08.245Z,99102.28
2023-03-31T23:16:36.980Z,99100.03
2023-03-31T23:19:06.019Z,99101.75
2023-03-31T23:21:35.714Z,99093.97
2023-03-31T23:24:06.754Z,99107.13
2023-03-31T23:26:36.194Z,99108.84
2023-03-31T23:29:05.430Z,99103.41
2023-03-31T23:31:36.114Z,99109.41
2023-03-31T23:34:05.739Z,99102.97
2023-03-31T23:36:34.761Z,99113.16
2023-03-31T23:39:06.735Z,99113.56
2023-03-31T23:41:37.008Z,99114.88
2023-03-31T23:44:13.329Z,99105.41
2023-03-31T23:46:45.144Z,99116.97
2023-03-31T23:49:14.702Z,99117.66
2023-03-31T23:51:46.156Z,99124.88
2023-03-31T23:54:16.972Z,99127.56
2023-03-31T23:56:45.809Z,99120.63
2023-03-31T23:59:14.462Z,99115.53
